sensor_id;sensor_type;location;lat;lon;timestamp;P1;durP1;ratioP1;P2;durP2;ratioP2
58240;SDS011;45058;55.772;38.224;2024-03-02T15:23:30;40.03;;;24.03;;
58240;SDS011;45058;55.772;38.224;2024-03-02T15:25:56;45.80;;;25.63;;
58240;SDS011;45058;55.772;38.224;2024-03-02T15:28:25;45.47;;;26.50;;
58240;SDS011;45058;55.772;38.224;2024-03-02T15:30:51;46.00;;;27.23;;
58240;SDS011;45058;55.772;38.224;2024-03-02T15:33:17;42.97;;;27.87;;
58240;SDS011;45058;55.772;38.224;2024-03-02T15:35:43;46.43;;;27.60;;
58240;SDS011;45058;55.772;38.224;2024-03-02T15:38:11;39.70;;;26.57;;
58240;SDS011;45058;55.772;38.224;2024-03-02T15:40:40;42.40;;;26.13;;
58240;SDS011;45058;55.772;38.224;2024-03-02T15:43:06;44.37;;;26.40;;
58240;SDS011;45058;55.772;38.224;2024-03-02T15:45:34;39.50;;;26.53;;
58240;SDS011;45058;55.772;38.224;2024-03-02T15:48:00;40.30;;;27.27;;
58240;SDS011;45058;55.772;38.224;2024-03-02T15:50:27;42.97;;;27.57;;
58240;SDS011;45058;55.772;38.224;2024-03-02T15:52:54;42.90;;;27.67;;
58240;SDS011;45058;55.772;38.224;2024-03-02T15:55:28;42.93;;;27.63;;
58240;SDS011;45058;55.772;38.224;2024-03-02T15:57:54;43.83;;;27.50;;
58240;SDS011;45058;55.772;38.224;2024-03-02T16:00:20;46.10;;;29.83;;
58240;SDS011;45058;55.772;38.224;2024-03-02T16:02:47;40.53;;;27.47;;
58240;SDS011;45058;55.772;38.224;2024-03-02T16:05:14;49.80;;;28.63;;
58240;SDS011;45058;55.772;38.224;2024-03-02T16:07:42;47.53;;;29.07;;
58240;SDS011;45058;55.772;38.224;2024-03-02T16:10:08;45.93;;;28.47;;
58240;SDS011;45058;55.772;38.224;2024-03-02T16:12:34;48.07;;;29.23;;
58240;SDS011;45058;55.772;38.224;2024-03-02T16:15:00;44.50;;;29.70;;
58240;SDS011;45058;55.772;38.224;2024-03-02T16:17:39;49.97;;;30.93;;
58240;SDS011;45058;55.772;38.224;2024-03-02T16:20:06;45.03;;;28.63;;
58240;SDS011;45058;55.772;38.224;2024-03-02T16:22:32;53.47;;;31.23;;
58240;SDS011;45058;55.772;38.224;2024-03-02T16:24:59;52.73;;;29.80;;
58240;SDS011;45058;55.772;38.224;2024-03-02T16:27:25;46.40;;;28.97;;
58240;SDS011;45058;55.772;38.224;2024-03-02T16:29:53;53.43;;;31.13;;
58240;SDS011;45058;55.772;38.224;2024-03-02T16:32:24;51.33;;;31.13;;
58240;SDS011;45058;55.772;38.224;2024-03-02T16:34:54;45.37;;;30.90;;
58240;SDS011;45058;55.772;38.224;2024-03-02T16:37:20;58.43;;;33.67;;
58240;SDS011;45058;55.772;38.224;2024-03-02T16:39:49;51.13;;;31.60;;
58240;SDS011;45058;55.772;38.224;2024-03-02T16:42:15;51.03;;;30.87;;
58240;SDS011;45058;55.772;38.224;2024-03-02T16:44:41;59.97;;;33.67;;
58240;SDS011;45058;55.772;38.224;2024-03-02T16:47:13;46.67;;;30.40;;
58240;SDS011;45058;55.772;38.224;2024-03-02T16:49:44;51.07;;;30.43;;
58240;SDS011;45058;55.772;38.224;2024-03-02T16:52:11;49.60;;;32.30;;
58240;SDS011;45058;55.772;38.224;2024-03-02T16:54:38;53.17;;;32.37;;
58240;SDS011;45058;55.772;38.224;2024-03-02T16:57:04;48.83;;;32.17;;
58240;SDS011;45058;55.772;38.224;2024-03-02T16:59:30;52.50;;;33.30;;
58240;SDS011;45058;55.772;38.224;2024-03-02T17:01:59;57.67;;;35.33;;
58240;SDS011;45058;55.772;38.224;2024-03-02T17:04:25;59.23;;;35.60;;
58240;SDS011;45058;55.772;38.224;2024-03-02T17:06:51;53.57;;;33.53;;
58240;SDS011;45058;55.772;38.224;2024-03-02T17:09:18;53.63;;;32.73;;
58240;SDS011;45058;55.772;38.224;2024-03-02T17:11:44;53.77;;;33.00;;
58240;SDS011;45058;55.772;38.224;2024-03-02T17:14:10;55.70;;;34.27;;
58240;SDS011;45058;55.772;38.224;2024-03-02T17:16:36;57.47;;;34.47;;
58240;SDS011;45058;55.772;38.224;2024-03-02T17:19:02;61.67;;;34.87;;
58240;SDS011;45058;55.772;38.224;2024-03-02T17:21:28;58.07;;;35.00;;
58240;SDS011;45058;55.772;38.224;2024-03-02T17:23:57;56.07;;;34.77;;
58240;SDS011;45058;55.772;38.224;2024-03-02T17:26:23;55.43;;;34.27;;
58240;SDS011;45058;55.772;38.224;2024-03-02T17:28:50;52.63;;;34.17;;
58240;SDS011;45058;55.772;38.224;2024-03-02T17:31:16;55.90;;;33.73;;
58240;SDS011;45058;55.772;38.224;2024-03-02T17:33:42;58.37;;;35.93;;
58240;SDS011;45058;55.772;38.224;2024-03-02T17:36:08;62.17;;;37.67;;
58240;SDS011;45058;55.772;38.224;2024-03-02T17:38:34;59.90;;;35.70;;
58240;SDS011;45058;55.772;38.224;2024-03-02T17:41:01;55.60;;;36.17;;
58240;SDS011;45058;55.772;38.224;2024-03-02T17:43:27;58.93;;;36.07;;
58240;SDS011;45058;55.772;38.224;2024-03-02T17:45:56;55.53;;;35.53;;
58240;SDS011;45058;55.772;38.224;2024-03-02T17:48:23;62.07;;;37.07;;
58240;SDS011;45058;55.772;38.224;2024-03-02T17:50:50;60.77;;;36.73;;
58240;SDS011;45058;55.772;38.224;2024-03-02T17:53:17;55.67;;;35.57;;
58240;SDS011;45058;55.772;38.224;2024-03-02T17:55:43;59.63;;;34.93;;
58240;SDS011;45058;55.772;38.224;2024-03-02T17:58:10;64.00;;;36.53;;
58240;SDS011;45058;55.772;38.224;2024-03-02T18:00:36;60.13;;;36.27;;
58240;SDS011;45058;55.772;38.224;2024-03-02T18:03:09;54.63;;;34.97;;
58240;SDS011;45058;55.772;38.224;2024-03-02T18:05:35;62.97;;;36.63;;
58240;SDS011;45058;55.772;38.224;2024-03-02T18:08:02;62.33;;;36.93;;
58240;SDS011;45058;55.772;38.224;2024-03-02T18:10:28;66.77;;;38.97;;
58240;SDS011;45058;55.772;38.224;2024-03-02T18:12:55;67.10;;;38.43;;
58240;SDS011;45058;55.772;38.224;2024-03-02T18:15:22;64.20;;;37.37;;
58240;SDS011;45058;55.772;38.224;2024-03-02T18:17:48;64.10;;;35.93;;
58240;SDS011;45058;55.772;38.224;2024-03-02T18:20:14;57.60;;;37.17;;
58240;SDS011;45058;55.772;38.224;2024-03-02T18:22:40;56.47;;;36.03;;
58240;SDS011;45058;55.772;38.224;2024-03-02T18:25:07;60.23;;;34.90;;
58240;SDS011;45058;55.772;38.224;2024-03-02T18:27:33;60.73;;;35.67;;
58240;SDS011;45058;55.772;38.224;2024-03-02T18:29:59;56.97;;;33.77;;
58240;SDS011;45058;55.772;38.224;2024-03-02T18:32:25;57.60;;;33.73;;
58240;SDS011;45058;55.772;38.224;2024-03-02T18:34:52;59.77;;;34.17;;
58240;SDS011;45058;55.772;38.224;2024-03-02T18:37:18;60.23;;;35.70;;
58240;SDS011;45058;55.772;38.224;2024-03-02T18:39:47;58.77;;;35.97;;
58240;SDS011;45058;55.772;38.224;2024-03-02T18:42:14;59.77;;;36.93;;
58240;SDS011;45058;55.772;38.224;2024-03-02T18:44:41;61.83;;;36.97;;
58240;SDS011;45058;55.772;38.224;2024-03-02T18:47:07;63.43;;;38.63;;
58240;SDS011;45058;55.772;38.224;2024-03-02T18:49:35;63.60;;;37.83;;
58240;SDS011;45058;55.772;38.224;2024-03-02T18:52:01;69.37;;;40.90;;
58240;SDS011;45058;55.772;38.224;2024-03-02T18:54:27;64.10;;;39.90;;
58240;SDS011;45058;55.772;38.224;2024-03-02T18:56:53;69.77;;;39.77;;
58240;SDS011;45058;55.772;38.224;2024-03-02T18:59:20;77.57;;;44.27;;
58240;SDS011;45058;55.772;38.224;2024-03-02T19:01:46;74.73;;;45.60;;
58240;SDS011;45058;55.772;38.224;2024-03-02T19:04:12;71.73;;;44.40;;
58240;SDS011;45058;55.772;38.224;2024-03-02T19:06:39;68.27;;;41.00;;
58240;SDS011;45058;55.772;38.224;2024-03-02T19:09:08;67.90;;;39.67;;
58240;SDS011;45058;55.772;38.224;2024-03-02T19:11:55;65.77;;;38.73;;
58240;SDS011;45058;55.772;38.224;2024-03-02T19:14:21;62.23;;;37.40;;
58240;SDS011;45058;55.772;38.224;2024-03-02T19:16:47;64.80;;;37.87;;
58240;SDS011;45058;55.772;38.224;2024-03-02T19:19:14;65.27;;;37.33;;
58240;SDS011;45058;55.772;38.224;2024-03-02T19:21:40;67.10;;;37.60;;
58240;SDS011;45058;55.772;38.224;2024-03-02T19:24:06;62.20;;;36.50;;
58240;SDS011;45058;55.772;38.224;2024-03-02T19:26:32;60.87;;;36.57;;
58240;SDS011;45058;55.772;38.224;2024-03-02T19:28:59;55.90;;;33.27;;
58240;SDS011;45058;55.772;38.224;2024-03-02T19:31:25;50.93;;;31.20;;
58240;SDS011;45058;55.772;38.224;2024-03-02T19:33:51;51.50;;;30.77;;
58240;SDS011;45058;55.772;38.224;2024-03-02T19:36:23;54.47;;;29.50;;
58240;SDS011;45058;55.772;38.224;2024-03-02T19:38:50;48.50;;;28.73;;
58240;SDS011;45058;55.772;38.224;2024-03-02T19:41:16;47.60;;;28.20;;
58240;SDS011;45058;55.772;38.224;2024-03-02T19:43:43;45.33;;;28.10;;
58240;SDS011;45058;55.772;38.224;2024-03-02T19:46:12;44.97;;;27.50;;
58240;SDS011;45058;55.772;38.224;2024-03-02T19:48:40;48.53;;;28.37;;
58240;SDS011;45058;55.772;38.224;2024-03-02T19:51:06;43.40;;;26.30;;
58240;SDS011;45058;55.772;38.224;2024-03-02T19:53:34;46.30;;;26.07;;
58240;SDS011;45058;55.772;38.224;2024-03-02T19:56:01;46.10;;;25.30;;
58240;SDS011;45058;55.772;38.224;2024-03-02T19:58:27;46.70;;;25.10;;
58240;SDS011;45058;55.772;38.224;2024-03-02T20:00:52;43.80;;;24.77;;
58240;SDS011;45058;55.772;38.224;2024-03-02T20:03:20;40.10;;;24.57;;
58240;SDS011;45058;55.772;38.224;2024-03-02T20:05:48;43.33;;;24.73;;
58240;SDS011;45058;55.772;38.224;2024-03-02T20:08:14;39.43;;;22.93;;
58240;SDS011;45058;55.772;38.224;2024-03-02T20:10:40;36.23;;;22.47;;
58240;SDS011;45058;55.772;38.224;2024-03-02T20:13:06;37.47;;;21.63;;
58240;SDS011;45058;55.772;38.224;2024-03-02T20:15:33;33.07;;;21.63;;
58240;SDS011;45058;55.772;38.224;2024-03-02T20:17:58;34.90;;;21.23;;
58240;SDS011;45058;55.772;38.224;2024-03-02T20:20:25;41.13;;;21.37;;
58240;SDS011;45058;55.772;38.224;2024-03-02T20:22:51;36.23;;;20.00;;
58240;SDS011;45058;55.772;38.224;2024-03-02T20:25:17;36.97;;;21.57;;
58240;SDS011;45058;55.772;38.224;2024-03-02T20:27:43;36.43;;;21.30;;
58240;SDS011;45058;55.772;38.224;2024-03-02T20:30:11;36.73;;;19.97;;
58240;SDS011;45058;55.772;38.224;2024-03-02T20:32:38;42.33;;;20.67;;
58240;SDS011;45058;55.772;38.224;2024-03-02T20:35:04;34.97;;;20.13;;
58240;SDS011;45058;55.772;38.224;2024-03-02T20:37:30;34.70;;;19.83;;
58240;SDS011;45058;55.772;38.224;2024-03-02T20:39:56;36.60;;;20.93;;
58240;SDS011;45058;55.772;38.224;2024-03-02T20:42:24;37.87;;;21.10;;
58240;SDS011;45058;55.772;38.224;2024-03-02T20:44:53;45.53;;;20.70;;
58240;SDS011;45058;55.772;38.224;2024-03-02T20:47:19;35.83;;;21.00;;
58240;SDS011;45058;55.772;38.224;2024-03-02T20:49:48;41.13;;;20.80;;
58240;SDS011;45058;55.772;38.224;2024-03-02T20:52:26;33.57;;;20.30;;
58240;SDS011;45058;55.772;38.224;2024-03-02T20:54:52;37.23;;;20.03;;
58240;SDS011;45058;55.772;38.224;2024-03-02T20:57:18;35.80;;;20.30;;
58240;SDS011;45058;55.772;38.224;2024-03-02T20:59:44;37.53;;;19.93;;
58240;SDS011;45058;55.772;38.224;2024-03-02T21:02:10;35.07;;;19.20;;
58240;SDS011;45058;55.772;38.224;2024-03-02T21:04:36;37.57;;;19.90;;
58240;SDS011;45058;55.772;38.224;2024-03-02T21:07:02;37.87;;;21.23;;
58240;SDS011;45058;55.772;38.224;2024-03-02T21:09:29;43.23;;;22.47;;
58240;SDS011;45058;55.772;38.224;2024-03-02T21:11:55;39.70;;;22.40;;
58240;SDS011;45058;55.772;38.224;2024-03-02T21:14:21;40.93;;;24.63;;
58240;SDS011;45058;55.772;38.224;2024-03-02T21:16:48;49.77;;;24.63;;
58240;SDS011;45058;55.772;38.224;2024-03-02T21:19:16;42.57;;;23.13;;
58240;SDS011;45058;55.772;38.224;2024-03-02T21:21:42;51.97;;;25.47;;
58240;SDS011;45058;55.772;38.224;2024-03-02T21:24:08;53.57;;;28.50;;
58240;SDS011;45058;55.772;38.224;2024-03-02T21:26:37;44.83;;;26.47;;
58240;SDS011;45058;55.772;38.224;2024-03-02T21:29:04;44.80;;;26.53;;
58240;SDS011;45058;55.772;38.224;2024-03-02T21:31:30;49.00;;;30.03;;
58240;SDS011;45058;55.772;38.224;2024-03-02T21:33:56;58.03;;;36.07;;
58240;SDS011;45058;55.772;38.224;2024-03-02T21:36:22;64.80;;;39.27;;
58240;SDS011;45058;55.772;38.224;2024-03-02T21:38:48;67.97;;;41.90;;
58240;SDS011;45058;55.772;38.224;2024-03-02T21:41:14;64.40;;;41.40;;
58240;SDS011;45058;55.772;38.224;2024-03-02T21:43:40;65.77;;;42.27;;
58240;SDS011;45058;55.772;38.224;2024-03-02T21:46:10;61.53;;;37.93;;
58240;SDS011;45058;55.772;38.224;2024-03-02T21:48:37;70.87;;;40.80;;
58240;SDS011;45058;55.772;38.224;2024-03-02T21:51:04;58.13;;;34.40;;
58240;SDS011;45058;55.772;38.224;2024-03-02T21:53:30;62.47;;;37.13;;
58240;SDS011;45058;55.772;38.224;2024-03-02T21:55:56;65.20;;;37.90;;
58240;SDS011;45058;55.772;38.224;2024-03-02T21:58:22;69.83;;;34.30;;
58240;SDS011;45058;55.772;38.224;2024-03-02T22:00:47;52.43;;;31.80;;
58240;SDS011;45058;55.772;38.224;2024-03-02T22:03:13;57.50;;;33.47;;
58240;SDS011;45058;55.772;38.224;2024-03-02T22:05:39;58.30;;;31.40;;
58240;SDS011;45058;55.772;38.224;2024-03-02T22:08:06;52.83;;;31.27;;
58240;SDS011;45058;55.772;38.224;2024-03-02T22:10:33;56.87;;;31.73;;
58240;SDS011;45058;55.772;38.224;2024-03-02T22:12:59;55.47;;;32.20;;
58240;SDS011;45058;55.772;38.224;2024-03-02T22:15:27;60.17;;;33.13;;
58240;SDS011;45058;55.772;38.224;2024-03-02T22:17:53;61.40;;;36.47;;
58240;SDS011;45058;55.772;38.224;2024-03-02T22:20:19;63.57;;;35.07;;
58240;SDS011;45058;55.772;38.224;2024-03-02T22:22:45;55.80;;;34.03;;
58240;SDS011;45058;55.772;38.224;2024-03-02T22:25:14;63.93;;;35.57;;
58240;SDS011;45058;55.772;38.224;2024-03-02T22:27:40;64.40;;;39.30;;
58240;SDS011;45058;55.772;38.224;2024-03-02T22:30:06;63.60;;;36.73;;
58240;SDS011;45058;55.772;38.224;2024-03-02T22:32:32;67.10;;;41.80;;
58240;SDS011;45058;55.772;38.224;2024-03-02T22:34:58;71.77;;;42.93;;
58240;SDS011;45058;55.772;38.224;2024-03-02T22:37:24;79.00;;;43.80;;
58240;SDS011;45058;55.772;38.224;2024-03-02T22:39:50;79.50;;;47.70;;
58240;SDS011;45058;55.772;38.224;2024-03-02T22:42:16;73.70;;;45.00;;
58240;SDS011;45058;55.772;38.224;2024-03-02T22:44:42;82.27;;;49.53;;
58240;SDS011;45058;55.772;38.224;2024-03-02T22:47:08;75.67;;;46.67;;
58240;SDS011;45058;55.772;38.224;2024-03-02T22:49:34;82.53;;;44.67;;
58240;SDS011;45058;55.772;38.224;2024-03-02T22:52:00;75.57;;;41.77;;
58240;SDS011;45058;55.772;38.224;2024-03-02T22:54:30;65.13;;;38.47;;
58240;SDS011;45058;55.772;38.224;2024-03-02T22:56:56;63.67;;;34.37;;
58240;SDS011;45058;55.772;38.224;2024-03-02T22:59:22;56.00;;;33.37;;
58240;SDS011;45058;55.772;38.224;2024-03-02T23:01:48;51.80;;;29.60;;
58240;SDS011;45058;55.772;38.224;2024-03-02T23:04:14;46.70;;;24.40;;
58240;SDS011;45058;55.772;38.224;2024-03-02T23:06:41;44.80;;;20.73;;
58240;SDS011;45058;55.772;38.224;2024-03-02T23:09:07;38.33;;;20.50;;
58240;SDS011;45058;55.772;38.224;2024-03-02T23:11:33;34.10;;;18.63;;
58240;SDS011;45058;55.772;38.224;2024-03-02T23:13:59;31.73;;;17.30;;
58240;SDS011;45058;55.772;38.224;2024-03-02T23:16:25;33.03;;;15.20;;
58240;SDS011;45058;55.772;38.224;2024-03-02T23:18:54;30.67;;;14.70;;
58240;SDS011;45058;55.772;38.224;2024-03-02T23:21:20;35.10;;;15.03;;
58240;SDS011;45058;55.772;38.224;2024-03-02T23:23:46;32.53;;;14.47;;
58240;SDS011;45058;55.772;38.224;2024-03-02T23:26:12;34.50;;;13.73;;
58240;SDS011;45058;55.772;38.224;2024-03-02T23:28:37;29.40;;;12.63;;
58240;SDS011;45058;55.772;38.224;2024-03-02T23:31:03;36.73;;;12.30;;
58240;SDS011;45058;55.772;38.224;2024-03-02T23:33:29;30.23;;;12.73;;
58240;SDS011;45058;55.772;38.224;2024-03-02T23:35:56;30.27;;;12.70;;
58240;SDS011;45058;55.772;38.224;2024-03-02T23:38:22;34.70;;;12.70;;
58240;SDS011;45058;55.772;38.224;2024-03-02T23:40:48;32.00;;;11.50;;
58240;SDS011;45058;55.772;38.224;2024-03-02T23:46:04;22.90;;;10.77;;
58240;SDS011;45058;55.772;38.224;2024-03-02T23:48:30;20.83;;;11.13;;
58240;SDS011;45058;55.772;38.224;2024-03-02T23:50:56;30.60;;;11.50;;
58240;SDS011;45058;55.772;38.224;2024-03-02T23:53:22;24.33;;;11.27;;
58240;SDS011;45058;55.772;38.224;2024-03-02T23:55:48;27.40;;;10.83;;
58240;SDS011;45058;55.772;38.224;2024-03-02T23:58:14;25.57;;;10.20;;
